TimeCDT,TemperatureF,Dew PointF,Humidity,Sea Level PressureIn,VisibilityMPH,Wind Direction,Wind SpeedMPH,Gust SpeedMPH,PrecipitationIn,Events,Conditions,WindDirDegrees,DateUTC
12:15 AM,46.4,26.6,46,30.23,10.0,North,5.8,-,N/A,,Clear,10,2013-04-25 05:15:00
12:35 AM,46.4,26.6,46,30.24,10.0,South,3.5,-,N/A,,Clear,170,2013-04-25 05:35:00
12:55 AM,44.6,26.6,49,30.24,10.0,South,4.6,-,N/A,,Clear,170,2013-04-25 05:55:00
1:15 AM,44.6,26.6,49,30.24,10.0,Calm,Calm,-,N/A,,Clear,0,2013-04-25 06:15:00
1:35 AM,44.6,24.8,46,30.24,10.0,Calm,Calm,-,N/A,,Clear,0,2013-04-25 06:35:00
1:55 AM,42.8,24.8,49,30.23,10.0,NW,3.5,-,N/A,,Clear,320,2013-04-25 06:55:00
2:15 AM,42.8,24.8,49,30.23,10.0,NW,3.5,-,N/A,,Clear,320,2013-04-25 07:15:00
2:35 AM,42.8,24.8,49,30.23,10.0,Calm,Calm,-,N/A,,Clear,0,2013-04-25 07:35:00
2:55 AM,41.0,24.8,53,30.22,10.0,Calm,Calm,-,N/A,,Clear,0,2013-04-25 07:55:00
3:15 AM,37.4,21.2,52,30.22,10.0,Calm,Calm,-,N/A,,Clear,0,2013-04-25 08:15:00
3:35 AM,37.4,21.2,52,30.22,10.0,Calm,Calm,-,N/A,,Clear,0,2013-04-25 08:35:00
3:55 AM,37.4,19.4,48,30.22,10.0,Calm,Calm,-,N/A,,Clear,0,2013-04-25 08:55:00
4:15 AM,37.4,21.2,52,30.22,10.0,NNE,3.5,-,N/A,,Clear,20,2013-04-25 09:15:00
4:35 AM,37.4,21.2,52,30.22,10.0,Calm,Calm,-,N/A,,Clear,0,2013-04-25 09:35:00
4:55 AM,37.4,21.2,52,30.22,10.0,Calm,Calm,-,N/A,,Clear,0,2013-04-25 09:55:00
5:15 AM,35.6,19.4,52,30.22,10.0,Calm,Calm,-,N/A,,Clear,0,2013-04-25 10:15:00
5:35 AM,35.6,21.2,56,30.22,10.0,Calm,Calm,-,N/A,,Clear,0,2013-04-25 10:35:00
5:55 AM,35.6,19.4,52,30.21,10.0,NNE,4.6,-,N/A,,Clear,30,2013-04-25 10:55:00
6:15 AM,35.6,23.0,60,30.21,10.0,NNE,8.1,-,N/A,,Clear,30,2013-04-25 11:15:00
6:35 AM,37.4,23.0,56,30.22,10.0,North,5.8,-,N/A,,Clear,10,2013-04-25 11:35:00
6:55 AM,35.6,23.0,60,30.23,10.0,Calm,Calm,-,N/A,,Clear,0,2013-04-25 11:55:00
7:15 AM,35.6,23.0,60,30.23,10.0,WNW,3.5,-,N/A,,Clear,290,2013-04-25 12:15:00
7:35 AM,35.6,21.2,56,30.24,10.0,Calm,Calm,-,N/A,,Clear,0,2013-04-25 12:35:00
7:55 AM,37.4,23.0,56,30.24,10.0,North,5.8,-,N/A,,Clear,350,2013-04-25 12:55:00
8:15 AM,39.2,24.8,56,30.25,10.0,NNE,3.5,-,N/A,,Clear,30,2013-04-25 13:15:00
8:35 AM,42.8,26.6,53,30.25,10.0,Calm,Calm,-,N/A,,Clear,0,2013-04-25 13:35:00
8:55 AM,46.4,30.2,53,30.25,10.0,ESE,3.5,-,N/A,,Clear,110,2013-04-25 13:55:00
9:15 AM,48.2,33.8,58,30.25,10.0,Calm,Calm,-,N/A,,Clear,0,2013-04-25 14:15:00
9:35 AM,51.8,35.6,54,30.26,10.0,ESE,4.6,-,N/A,,Clear,120,2013-04-25 14:35:00
9:55 AM,53.6,37.4,54,30.26,10.0,SSE,3.5,-,N/A,,Clear,160,2013-04-25 14:55:00
10:15 AM,59.0,42.8,55,30.26,10.0,SSE,11.5,-,N/A,,Clear,150,2013-04-25 15:15:00
10:35 AM,60.8,41.0,48,30.26,10.0,South,10.4,-,N/A,,Clear,170,2013-04-25 15:35:00
10:55 AM,62.6,44.6,52,30.27,10.0,SSE,9.2,-,N/A,,Clear,150,2013-04-25 15:55:00
11:15 AM,62.6,39.2,42,30.28,10.0,South,10.4,16.1,N/A,,Clear,170,2013-04-25 16:15:00
11:35 AM,62.6,39.2,42,30.27,10.0,South,9.2,17.3,N/A,,Clear,180,2013-04-25 16:35:00
11:55 AM,64.4,42.8,45,30.27,10.0,South,11.5,18.4,N/A,,Clear,180,2013-04-25 16:55:00
12:15 PM,66.2,42.8,43,30.26,10.0,SE,15.0,20.7,N/A,,Clear,140,2013-04-25 17:15:00
12:35 PM,68.0,44.6,43,30.25,10.0,SSE,16.1,21.9,N/A,,Clear,160,2013-04-25 17:35:00
12:55 PM,69.8,44.6,40,30.24,10.0,SSE,17.3,23.0,N/A,,Clear,150,2013-04-25 17:55:00
1:15 PM,69.8,44.6,40,30.24,10.0,SSE,16.1,21.9,N/A,,Clear,160,2013-04-25 18:15:00
1:35 PM,71.6,44.6,38,30.23,10.0,SSE,19.6,-,N/A,,Clear,150,2013-04-25 18:35:00
1:55 PM,71.6,44.6,38,30.22,10.0,South,15.0,18.4,N/A,,Clear,170,2013-04-25 18:55:00
2:15 PM,71.6,44.6,38,30.21,10.0,South,11.5,20.7,N/A,,Clear,170,2013-04-25 19:15:00
2:35 PM,73.4,44.6,36,30.20,10.0,SSE,16.1,-,N/A,,Clear,160,2013-04-25 19:35:00
2:55 PM,75.2,42.8,31,30.18,10.0,South,17.3,23.0,N/A,,Clear,170,2013-04-25 19:55:00
3:15 PM,78.8,42.8,28,30.17,10.0,SSE,15.0,25.3,N/A,,Clear,150,2013-04-25 20:15:00
3:35 PM,78.8,42.8,28,30.16,10.0,SSE,18.4,24.2,N/A,,Clear,150,2013-04-25 20:35:00
3:55 PM,78.8,41.0,26,30.14,10.0,SSE,19.6,25.3,N/A,,Clear,150,2013-04-25 20:55:00
4:15 PM,80.6,39.2,23,30.12,10.0,SSE,21.9,27.6,N/A,,Clear,150,2013-04-25 21:15:00
4:35 PM,80.6,39.2,23,30.11,10.0,SSE,16.1,25.3,N/A,,Clear,160,2013-04-25 21:35:00
4:55 PM,80.6,37.4,21,30.09,10.0,SE,19.6,26.5,N/A,,Clear,140,2013-04-25 21:55:00
5:15 PM,80.6,37.4,21,30.08,10.0,South,18.4,24.2,N/A,,Clear,170,2013-04-25 22:15:00
5:35 PM,80.6,35.6,20,30.07,10.0,SSE,18.4,25.3,N/A,,Clear,160,2013-04-25 22:35:00
5:55 PM,80.6,28.4,15,30.07,10.0,SSE,19.6,26.5,N/A,,Clear,160,2013-04-25 22:55:00
6:15 PM,78.8,35.6,21,30.06,10.0,SSE,23.0,28.8,N/A,,Clear,150,2013-04-25 23:15:00
6:35 PM,78.8,35.6,21,30.06,10.0,SSE,21.9,26.5,N/A,,Clear,150,2013-04-25 23:35:00
6:55 PM,77.0,37.4,24,30.06,10.0,SSE,18.4,28.8,N/A,,Clear,150,2013-04-25 23:55:00
7:15 PM,75.2,37.4,25,30.06,10.0,SE,17.3,23.0,N/A,,Clear,140,2013-04-26 00:15:00
7:35 PM,73.4,37.4,27,30.05,10.0,SE,18.4,26.5,N/A,,Clear,130,2013-04-26 00:35:00
7:55 PM,71.6,39.2,31,30.05,10.0,SE,18.4,25.3,N/A,,Clear,130,2013-04-26 00:55:00
8:15 PM,69.8,39.2,33,30.05,10.0,ESE,19.6,-,N/A,,Clear,120,2013-04-26 01:15:00
8:35 PM,66.2,39.2,37,30.05,10.0,SE,13.8,-,N/A,,Clear,130,2013-04-26 01:35:00
8:55 PM,64.4,39.2,40,30.07,10.0,ESE,11.5,17.3,N/A,,Clear,110,2013-04-26 01:55:00
9:15 PM,62.6,39.2,42,30.09,10.0,NNE,4.6,-,N/A,,Clear,30,2013-04-26 02:15:00
9:35 PM,62.6,39.2,42,30.08,10.0,ESE,10.4,-,N/A,,Clear,120,2013-04-26 02:35:00
9:55 PM,60.8,39.2,45,30.09,10.0,SE,9.2,-,N/A,,Clear,130,2013-04-26 02:55:00
10:15 PM,60.8,39.2,45,30.09,10.0,SSE,9.2,-,N/A,,Clear,150,2013-04-26 03:15:00
10:35 PM,59.0,39.2,48,30.10,10.0,SE,6.9,-,N/A,,Clear,140,2013-04-26 03:35:00
10:55 PM,57.2,39.2,51,30.11,10.0,ESE,5.8,-,N/A,,Clear,120,2013-04-26 03:55:00
11:15 PM,55.4,39.2,54,30.11,10.0,East,5.8,-,N/A,,Clear,100,2013-04-26 04:15:00
11:35 PM,55.4,37.4,51,30.11,10.0,ESE,4.6,-,N/A,,Clear,120,2013-04-26 04:35:00
11:55 PM,53.6,37.4,54,30.13,10.0,Calm,Calm,-,N/A,,Clear,0,2013-04-26 04:55:00